Time;durP1;ratioP1;P1;durP2;ratioP2;P2;SDS_P1;SDS_P2;PMS_P1;PMS_P2;Temp;Humidity;BMP_temperature;BMP_pressure;BME280_temperature;BME280_humidity;BME280_pressure;Samples;Min_cycle;Max_cycle;Signal;HPM_P1;HPM_P2
2022/08/15 00:02:24;;;;;;;;;;;16.70;99.90;;;;;;4993109;28;19968;-79
2022/08/15 00:04:49;;;;;;;;;;;16.70;99.90;;;;;;4995610;28;20553;-80
2022/08/15 00:07:15;;;;;;;;;;;16.70;99.90;;;;;;4997034;28;19936;-80
2022/08/15 00:09:40;;;;;;;;;;;16.70;99.90;;;;;;5015325;28;20085;-80
2022/08/15 00:12:06;;;;;;;;;;;16.80;99.90;;;;;;5019553;28;19974;-79
2022/08/15 00:14:33;;;;;;;;;;;16.80;99.90;;;;;;5021392;28;20004;-80
2022/08/15 00:17:01;;;;;;;;;;;16.80;99.90;;;;;;4997937;28;20004;-80
2022/08/15 00:19:31;;;;;;;;;;;16.80;99.90;;;;;;5017789;28;19917;-80
2022/08/15 00:22:01;;;;;;;;;;;16.80;99.90;;;;;;5014213;28;20101;-80
2022/08/15 00:24:28;;;;;;;;;;;16.70;99.90;;;;;;5015796;28;19952;-80
2022/08/15 00:26:55;;;;;;;;;;;16.70;99.90;;;;;;5012643;28;19932;-80
2022/08/15 00:29:22;;;;;;;;;;;16.70;99.90;;;;;;5013670;28;19931;-80
2022/08/15 00:31:48;;;;;;;;;;;16.70;99.90;;;;;;5013270;28;19940;-80
2022/08/15 00:34:15;;;;;;;;;;;16.70;99.90;;;;;;5017749;28;19917;-80
2022/08/15 00:36:40;;;;;;;;;;;16.60;99.90;;;;;;4996234;28;20722;-80
2022/08/15 00:39:06;;;;;;;;;;;16.60;99.90;;;;;;5013254;28;19916;-80
2022/08/15 00:41:41;;;;;;;;;;;16.60;99.90;;;;;;5011972;28;19921;-80
2022/08/15 00:44:24;;;;;;;;;;;16.50;99.90;;;;;;5009309;28;19929;-80
2022/08/15 00:46:54;;;;;;;;;;;16.40;99.90;;;;;;5011380;28;20374;-79
2022/08/15 00:49:21;;;;;;;;;;;16.40;99.90;;;;;;5017948;28;20273;-80
2022/08/15 00:51:55;;;;;;;;;;;16.30;99.90;;;;;;5015217;28;19917;-80
2022/08/15 00:54:43;;;;;;;;;;;16.20;99.90;;;;;;5015090;28;19948;-80
2022/08/15 00:57:14;;;;;;;;;;;16.10;99.90;;;;;;5006779;28;20155;-80
2022/08/15 00:59:43;;;;;;;;;;;15.90;99.90;;;;;;5011875;28;20574;-80
2022/08/15 01:02:10;;;;;;;;;;;15.80;99.90;;;;;;4997601;28;19921;-80
2022/08/15 01:04:37;;;;;;;;;;;15.80;99.90;;;;;;5014391;28;20396;-81
2022/08/15 01:07:03;;;;;;;;;;;15.90;99.90;;;;;;4994540;28;20297;-81
2022/08/15 01:09:29;;;;;;;;;;;15.90;99.90;;;;;;5002288;28;19941;-80
2022/08/15 01:12:13;;;;;;;;;;;15.90;99.90;;;;;;5016187;28;19963;-80
2022/08/15 01:14:40;;;;;;;;;;;15.90;99.90;;;;;;5015491;28;19916;-80
2022/08/15 01:17:07;;;;;;;;;;;16.00;99.90;;;;;;5017682;28;19979;-80
2022/08/15 01:19:33;;;;;;;;;;;16.00;99.90;;;;;;5018382;28;19944;-80
2022/08/15 01:22:09;;;;;;;;;;;16.00;99.90;;;;;;5021264;28;20060;-80
2022/08/15 01:24:37;;;;;;;;;;;16.00;99.90;;;;;;5015988;28;19925;-80
2022/08/15 01:27:03;;;;;;;;;;;16.00;99.90;;;;;;5017601;28;20019;-80
2022/08/15 01:29:29;;;;;;;;;;;16.00;99.90;;;;;;5018682;28;19972;-80
2022/08/15 01:31:55;;;;;;;;;;;16.00;99.90;;;;;;5013549;28;19917;-80
2022/08/15 01:34:20;;;;;;;;;;;16.10;99.90;;;;;;5016915;28;19932;-79
2022/08/15 01:36:47;;;;;;;;;;;16.10;99.90;;;;;;5016310;28;19917;-80
2022/08/15 01:39:31;;;;;;;;;;;16.10;99.90;;;;;;5015355;28;19987;-80
2022/08/15 01:42:08;;;;;;;;;;;16.10;99.90;;;;;;5018314;28;20142;-79
2022/08/15 01:44:42;;;;;;;;;;;16.10;99.90;;;;;;5021545;28;20099;-80
2022/08/15 01:47:28;;;;;;;;;;;16.10;99.90;;;;;;4998132;28;20008;-80
2022/08/15 01:49:53;;;;;;;;;;;16.00;99.90;;;;;;5009778;28;20016;-80
2022/08/15 01:52:20;;;;;;;;;;;16.00;99.90;;;;;;5020273;28;20436;-81
2022/08/15 01:54:47;;;;;;;;;;;15.90;99.90;;;;;;5020008;28;20356;-80
2022/08/15 01:57:13;;;;;;;;;;;15.80;99.90;;;;;;4999227;28;20000;-80
2022/08/15 01:59:38;;;;;;;;;;;15.70;99.90;;;;;;5017152;28;20012;-80
2022/08/15 02:02:06;;;;;;;;;;;15.70;99.90;;;;;;5019086;28;20807;-81
2022/08/15 02:04:33;;;;;;;;;;;15.60;99.90;;;;;;5017527;28;19925;-80
2022/08/15 02:07:03;;;;;;;;;;;15.60;99.90;;;;;;4999992;28;19944;-80
2022/08/15 02:09:29;;;;;;;;;;;15.50;99.90;;;;;;5019419;28;19917;-80
2022/08/15 02:11:55;;;;;;;;;;;15.60;99.90;;;;;;5012800;28;19917;-80
2022/08/15 02:14:21;;;;;;;;;;;15.60;99.90;;;;;;5022514;28;19955;-79
2022/08/15 02:16:47;;;;;;;;;;;15.70;99.90;;;;;;5020721;28;19921;-80
2022/08/15 02:19:13;;;;;;;;;;;15.60;99.90;;;;;;5020543;28;20304;-80
2022/08/15 02:21:40;;;;;;;;;;;15.70;99.90;;;;;;5012248;28;20338;-80
2022/08/15 02:24:08;;;;;;;;;;;15.80;99.90;;;;;;5000008;28;19925;-80
2022/08/15 02:26:33;;;;;;;;;;;15.80;99.90;;;;;;5015423;28;19925;-80
2022/08/15 02:28:59;;;;;;;;;;;15.80;99.90;;;;;;5020156;28;20344;-79
2022/08/15 02:31:25;;;;;;;;;;;15.90;99.90;;;;;;5003342;28;19917;-80
2022/08/15 02:33:56;;;;;;;;;;;15.90;99.90;;;;;;5004063;28;20463;-79
2022/08/15 02:36:22;;;;;;;;;;;15.90;99.90;;;;;;5019846;28;20016;-80
2022/08/15 02:38:49;;;;;;;;;;;15.90;99.90;;;;;;5017974;28;19963;-80
2022/08/15 02:41:22;;;;;;;;;;;15.90;99.90;;;;;;5016379;28;19917;-80
2022/08/15 02:43:47;;;;;;;;;;;15.90;99.90;;;;;;5022198;28;20172;-80
2022/08/15 02:46:16;;;;;;;;;;;15.90;99.90;;;;;;5021036;28;19917;-80
2022/08/15 02:48:42;;;;;;;;;;;15.90;99.90;;;;;;5003959;28;20059;-80
2022/08/15 02:51:08;;;;;;;;;;;15.80;99.90;;;;;;5010053;28;20350;-80
2022/08/15 02:53:34;;;;;;;;;;;15.80;99.90;;;;;;5018993;28;19917;-80
2022/08/15 02:56:00;;;;;;;;;;;15.80;99.90;;;;;;5006874;28;20300;-80
2022/08/15 02:58:26;;;;;;;;;;;15.80;99.90;;;;;;5020699;28;20375;-80
2022/08/15 03:00:52;;;;;;;;;;;15.90;99.90;;;;;;5001234;28;20270;-80
2022/08/15 03:03:18;;;;;;;;;;;16.00;99.90;;;;;;5019207;28;19924;-80
2022/08/15 03:05:47;;;;;;;;;;;16.10;99.90;;;;;;5019367;28;20407;-80
2022/08/15 03:08:12;;;;;;;;;;;16.10;99.90;;;;;;5013433;28;19983;-80
2022/08/15 03:10:39;;;;;;;;;;;16.10;99.90;;;;;;5007421;28;19956;-80
2022/08/15 03:13:06;;;;;;;;;;;16.20;99.90;;;;;;5018628;28;20016;-80
2022/08/15 03:15:38;;;;;;;;;;;16.40;99.90;;;;;;5018837;28;19917;-80
2022/08/15 03:18:03;;;;;;;;;;;16.50;99.90;;;;;;5019840;28;19917;-79
2022/08/15 03:20:29;;;;;;;;;;;16.50;99.90;;;;;;5021640;28;20020;-80
2022/08/15 03:22:54;;;;;;;;;;;16.50;99.90;;;;;;5015071;28;20161;-80
2022/08/15 03:25:24;;;;;;;;;;;16.40;99.90;;;;;;5020072;28;19921;-81
2022/08/15 03:27:49;;;;;;;;;;;16.40;99.90;;;;;;5014196;28;19932;-80
2022/08/15 03:30:15;;;;;;;;;;;16.30;99.90;;;;;;5021778;28;19917;-80
2022/08/15 03:32:45;;;;;;;;;;;16.30;99.90;;;;;;5017024;28;19917;-80
2022/08/15 03:35:11;;;;;;;;;;;16.30;99.90;;;;;;5019144;28;20323;-80
2022/08/15 03:37:38;;;;;;;;;;;16.40;99.90;;;;;;5021571;28;19940;-80
2022/08/15 03:40:04;;;;;;;;;;;16.40;99.90;;;;;;5016276;28;19917;-80
2022/08/15 03:42:30;;;;;;;;;;;16.40;99.90;;;;;;5022431;28;19913;-80
2022/08/15 03:44:56;;;;;;;;;;;16.40;99.90;;;;;;5005213;28;19917;-80
2022/08/15 03:47:21;;;;;;;;;;;16.30;99.90;;;;;;5019638;28;19936;-80
2022/08/15 03:49:47;;;;;;;;;;;16.30;99.90;;;;;;5020167;28;19916;-79
2022/08/15 03:52:13;;;;;;;;;;;16.30;99.90;;;;;;5019523;28;19972;-80
2022/08/15 03:54:39;;;;;;;;;;;16.30;99.90;;;;;;5020654;28;19917;-79
2022/08/15 03:57:05;;;;;;;;;;;16.20;99.90;;;;;;5019833;28;20507;-80
2022/08/15 03:59:30;;;;;;;;;;;16.20;99.90;;;;;;5020438;28;19921;-78
2022/08/15 04:01:56;;;;;;;;;;;16.10;99.90;;;;;;5015553;28;20264;-80
2022/08/15 04:04:21;;;;;;;;;;;16.10;99.90;;;;;;5008137;28;20008;-81
2022/08/15 04:06:47;;;;;;;;;;;16.10;99.90;;;;;;5018830;28;20043;-80
2022/08/15 04:09:12;;;;;;;;;;;16.10;99.90;;;;;;5015764;28;19917;-80
2022/08/15 04:11:38;;;;;;;;;;;16.00;99.90;;;;;;5002386;28;19944;-80
2022/08/15 04:14:06;;;;;;;;;;;16.00;99.90;;;;;;5018597;28;19963;-80
2022/08/15 04:16:32;;;;;;;;;;;16.00;99.90;;;;;;5003164;28;19925;-80
2022/08/15 04:18:58;;;;;;;;;;;16.00;99.90;;;;;;5005862;28;19917;-80
2022/08/15 04:21:24;;;;;;;;;;;16.00;99.90;;;;;;5001434;28;19921;-80
2022/08/15 04:23:50;;;;;;;;;;;16.00;99.90;;;;;;5019233;28;19971;-79
2022/08/15 04:26:16;;;;;;;;;;;16.00;99.90;;;;;;5014931;28;19918;-80
2022/08/15 04:28:43;;;;;;;;;;;16.00;99.90;;;;;;5011318;28;19921;-80
2022/08/15 04:31:19;;;;;;;;;;;15.90;99.90;;;;;;5016857;28;20212;-78
2022/08/15 04:33:45;;;;;;;;;;;15.90;99.90;;;;;;5002648;28;20015;-80
2022/08/15 04:36:13;;;;;;;;;;;15.90;99.90;;;;;;5011322;28;19971;-81
2022/08/15 04:38:42;;;;;;;;;;;15.80;99.90;;;;;;5006211;28;19928;-80
2022/08/15 04:41:09;;;;;;;;;;;15.80;99.90;;;;;;4996495;28;19956;-80
2022/08/15 04:43:35;;;;;;;;;;;15.80;99.90;;;;;;5001974;28;19917;-80
2022/08/15 04:46:01;;;;;;;;;;;15.80;99.90;;;;;;5002659;28;20376;-80
2022/08/15 04:48:27;;;;;;;;;;;15.80;99.90;;;;;;5020641;28;19925;-78
2022/08/15 04:50:53;;;;;;;;;;;15.90;99.90;;;;;;5019799;28;19978;-80
2022/08/15 04:53:21;;;;;;;;;;;16.00;99.90;;;;;;5014460;28;20459;-79
2022/08/15 04:55:49;;;;;;;;;;;16.10;99.90;;;;;;5023171;28;19916;-80
2022/08/15 04:58:15;;;;;;;;;;;16.10;99.90;;;;;;5016997;28;19923;-79
2022/08/15 05:00:42;;;;;;;;;;;16.10;99.90;;;;;;5003250;28;19917;-79
2022/08/15 05:03:10;;;;;;;;;;;16.00;99.90;;;;;;5022256;28;20007;-79
2022/08/15 05:05:38;;;;;;;;;;;16.00;99.90;;;;;;5015797;28;19925;-79
2022/08/15 05:08:04;;;;;;;;;;;16.00;99.90;;;;;;5011178;28;20377;-79
2022/08/15 05:10:29;;;;;;;;;;;16.00;99.90;;;;;;5013441;28;19928;-79
2022/08/15 05:12:55;;;;;;;;;;;16.00;99.90;;;;;;5006707;28;19913;-79
2022/08/15 05:15:21;;;;;;;;;;;16.00;99.90;;;;;;5021240;28;20012;-80
2022/08/15 05:17:47;;;;;;;;;;;16.00;99.90;;;;;;5023665;28;19917;-79
2022/08/15 05:20:13;;;;;;;;;;;16.00;99.90;;;;;;5023338;28;19992;-79
2022/08/15 05:23:11;;;;;;;;;;;16.10;99.90;;;;;;5022976;28;19921;-79
2022/08/15 05:25:38;;;;;;;;;;;16.10;99.90;;;;;;4997055;28;19995;-79
2022/08/15 05:28:03;;;;;;;;;;;16.20;99.90;;;;;;5015105;28;19964;-79
2022/08/15 05:30:29;;;;;;;;;;;16.30;99.90;;;;;;5009607;28;19917;-79
2022/08/15 05:33:01;;;;;;;;;;;16.40;99.90;;;;;;5019805;28;20293;-79
2022/08/15 05:35:26;;;;;;;;;;;16.50;99.90;;;;;;5029039;28;19921;-79
2022/08/15 05:37:52;;;;;;;;;;;16.70;99.90;;;;;;5033267;28;20522;-78
2022/08/15 05:40:18;;;;;;;;;;;16.80;99.90;;;;;;5018949;28;19913;-78
2022/08/15 05:42:51;;;;;;;;;;;16.90;99.90;;;;;;5018833;28;20820;-79
2022/08/15 05:45:35;;;;;;;;;;;17.10;99.90;;;;;;5021789;28;19917;-79
2022/08/15 05:48:11;;;;;;;;;;;17.20;99.90;;;;;;5019620;28;19964;-79
2022/08/15 05:50:48;;;;;;;;;;;17.40;99.90;;;;;;5025178;28;19951;-79
2022/08/15 05:53:29;;;;;;;;;;;17.40;99.90;;;;;;5025634;28;19952;-78
2022/08/15 05:55:59;;;;;;;;;;;17.60;99.90;;;;;;5029436;28;19924;-79
2022/08/15 05:58:45;;;;;;;;;;;17.70;99.90;;;;;;5022358;28;20301;-79
2022/08/15 06:01:20;;;;;;;;;;;17.80;99.90;;;;;;5024466;28;20298;-79
2022/08/15 06:04:09;;;;;;;;;;;17.80;99.90;;;;;;5010093;28;20435;-79
2022/08/15 06:06:38;;;;;;;;;;;17.80;99.90;;;;;;5021797;28;19925;-79
2022/08/15 06:09:13;;;;;;;;;;;17.80;99.90;;;;;;5032399;28;19993;-79
2022/08/15 06:11:43;;;;;;;;;;;17.80;99.90;;;;;;5025610;28;20308;-79
2022/08/15 06:14:29;;;;;;;;;;;17.90;99.90;;;;;;5028754;28;20323;-79
2022/08/15 06:16:56;;;;;;;;;;;18.00;99.90;;;;;;5027316;28;20004;-79
2022/08/15 06:19:24;;;;;;;;;;;17.90;99.90;;;;;;5029021;28;19924;-79
2022/08/15 06:21:50;;;;;;;;;;;17.90;99.90;;;;;;5025838;28;19922;-79
2022/08/15 06:24:24;;;;;;;;;;;18.00;99.90;;;;;;5028614;28;19921;-79
2022/08/15 06:27:19;;;;;;;;;;;18.10;99.90;;;;;;5024380;28;19921;-79
2022/08/15 06:29:53;;;;;;;;;;;18.20;99.90;;;;;;5013903;28;20019;-79
2022/08/15 06:32:24;;;;;;;;;;;18.20;99.90;;;;;;5026462;28;19917;-79
2022/08/15 06:34:56;;;;;;;;;;;18.40;99.90;;;;;;5024559;28;19979;-79
2022/08/15 06:37:35;;;;;;;;;;;18.50;99.90;;;;;;5027942;28;19916;-79
2022/08/15 06:40:00;;;;;;;;;;;18.60;99.90;;;;;;5027864;28;20389;-79
2022/08/15 06:42:28;;;;;;;;;;;18.70;99.90;;;;;;5028640;28;19923;-79
2022/08/15 06:44:57;;;;;;;;;;;18.70;99.90;;;;;;5016410;28;19917;-79
2022/08/15 06:47:23;;;;;;;;;;;18.80;99.90;;;;;;5021640;28;20384;-79
2022/08/15 06:49:51;;;;;;;;;;;18.90;99.90;;;;;;5013562;28;20351;-79
2022/08/15 06:52:17;;;;;;;;;;;19.10;99.90;;;;;;5019219;28;19916;-79
2022/08/15 06:54:43;;;;;;;;;;;19.20;99.90;;;;;;5023691;28;19921;-79
2022/08/15 06:57:11;;;;;;;;;;;19.30;99.90;;;;;;5018647;28;19964;-77
2022/08/15 06:59:44;;;;;;;;;;;19.50;99.90;;;;;;5014599;28;19928;-76
2022/08/15 07:02:10;;;;;;;;;;;19.50;99.90;;;;;;5014348;28;19913;-76
2022/08/15 07:04:54;;;;;;;;;;;19.70;99.90;;;;;;5018351;28;19994;-77
2022/08/15 07:07:35;;;;;;;;;;;20.00;99.90;;;;;;5006974;28;19925;-76
2022/08/15 07:10:00;;;;;;;;;;;20.30;99.90;;;;;;5004905;28;19960;-68
2022/08/15 07:12:31;;;;;;;;;;;20.60;99.90;;;;;;5004428;28;20059;-69
2022/08/15 07:15:12;;;;;;;;;;;20.90;99.90;;;;;;5003889;28;19922;-68
2022/08/15 07:17:40;;;;;;;;;;;21.20;99.90;;;;;;5006330;28;21371;-68
2022/08/15 07:20:06;;;;;;;;;;;21.50;99.90;;;;;;5007677;28;19918;-69
2022/08/15 07:22:32;;;;;;;;;;;21.80;99.90;;;;;;5012761;28;19917;-69
2022/08/15 07:24:58;;;;;;;;;;;22.10;99.90;;;;;;5005179;28;20056;-69
2022/08/15 07:27:29;;;;;;;;;;;22.30;99.90;;;;;;4997683;28;20038;-69
2022/08/15 07:29:57;;;;;;;;;;;22.60;99.90;;;;;;5003454;28;19918;-70
2022/08/15 07:32:29;;;;;;;;;;;23.00;99.90;;;;;;5011055;28;20399;-69
2022/08/15 07:35:00;;;;;;;;;;;23.40;99.90;;;;;;5020945;28;19923;-69
2022/08/15 07:37:32;;;;;;;;;;;23.80;99.90;;;;;;5013055;28;19939;-70
2022/08/15 07:39:59;;;;;;;;;;;24.20;99.90;;;;;;5011907;28;19928;-69
2022/08/15 07:42:26;;;;;;;;;;;24.50;99.90;;;;;;5004677;28;19924;-70
2022/08/15 07:44:53;;;;;;;;;;;24.80;99.90;;;;;;5015729;28;19917;-70
2022/08/15 07:47:29;;;;;;;;;;;25.10;99.90;;;;;;5006397;28;19933;-68
2022/08/15 07:50:00;;;;;;;;;;;25.50;99.90;;;;;;5003337;28;19964;-67
2022/08/15 07:52:26;;;;;;;;;;;25.60;99.90;;;;;;5014910;28;19924;-68
2022/08/15 07:54:53;;;;;;;;;;;25.60;99.90;;;;;;5021344;28;19921;-67
2022/08/15 07:57:18;;;;;;;;;;;26.40;99.90;;;;;;5014410;28;19924;-68
2022/08/15 08:00:00;;;;;;;;;;;29.50;99.90;;;;;;5006078;28;20176;-67
2022/08/15 08:02:34;;;;;;;;;;;32.20;97.00;;;;;;5017518;28;19917;-68
2022/08/15 08:05:01;;;;;;;;;;;34.70;82.80;;;;;;5020251;28;19925;-68
2022/08/15 08:07:30;;;;;;;;;;;35.90;74.20;;;;;;5024450;28;19932;-68
2022/08/15 08:10:00;;;;;;;;;;;35.90;69.80;;;;;;5001939;28;19924;-68
2022/08/15 08:12:36;;;;;;;;;;;36.10;66.20;;;;;;5022342;28;19917;-68
2022/08/15 08:15:04;;;;;;;;;;;37.10;62.60;;;;;;5015614;28;19917;-68
2022/08/15 08:17:30;;;;;;;;;;;37.60;60.20;;;;;;5023662;28;19924;-69
2022/08/15 08:20:14;;;;;;;;;;;37.60;57.90;;;;;;5023192;28;19913;-68
2022/08/15 08:23:04;;;;;;;;;;;35.90;60.30;;;;;;5017553;28;20312;-68
2022/08/15 08:25:44;;;;;;;;;;;36.40;60.30;;;;;;5015492;28;19944;-68
2022/08/15 08:28:21;;;;;;;;;;;36.80;58.20;;;;;;5016989;28;19920;-68
2022/08/15 08:31:02;;;;;;;;;;;37.60;58.90;;;;;;5011646;28;19992;-68
2022/08/15 08:33:37;;;;;;;;;;;37.20;56.60;;;;;;5016027;28;20025;-68
2022/08/15 08:36:25;;;;;;;;;;;35.90;57.80;;;;;;5015915;28;20283;-72
2022/08/15 08:39:14;;;;;;;;;;;33.50;62.50;;;;;;5017066;28;19917;-73
2022/08/15 08:41:47;;;;;;;;;;;31.80;71.40;;;;;;5019895;23;20305;-73
2022/08/15 08:44:50;;;;;;;;;;;31.20;76.50;;;;;;5009023;28;19917;-75
2022/08/15 08:47:32;;;;;;;;;;;30.80;85.30;;;;;;4972493;28;19944;-75
2022/08/15 08:49:58;;;;;;;;;;;30.10;90.90;;;;;;5011331;28;19994;-74
2022/08/15 08:52:27;;;;;;;;;;;29.60;94.40;;;;;;5020978;28;20356;-75
2022/08/15 08:55:18;;;;;;;;;;;29.60;96.30;;;;;;5007155;28;19914;-75
2022/08/15 08:57:46;;;;;;;;;;;30.30;95.30;;;;;;5019115;28;19944;-75
2022/08/15 09:00:12;;;;;;;;;;;31.10;92.40;;;;;;5016006;28;19936;-74
2022/08/15 09:02:49;;;;;;;;;;;32.20;90.00;;;;;;5016889;28;19913;-75
2022/08/15 09:05:24;;;;;;;;;;;33.70;82.40;;;;;;5016106;28;19913;-75
2022/08/15 09:08:07;;;;;;;;;;;35.60;73.00;;;;;;5005966;28;19952;-75
2022/08/15 09:10:34;;;;;;;5.60;4.90;;;37.10;65.40;;;;;;5016269;28;19917;-75
2022/08/15 09:15:51;;;;;;;7.18;5.53;;;38.50;56.50;;;;;;5013277;28;20041;-75
2022/08/15 09:18:33;;;;;;;5.53;5.03;;;38.50;52.90;;;;;;5003612;28;20033;-75
2022/08/15 09:20:59;;;;;;;9.35;4.70;;;37.70;54.50;;;;;;5013424;28;20033;-75
2022/08/15 09:23:31;;;;;;;8.02;6.05;;;37.90;52.80;;;;;;5016559;28;20044;-76
2022/08/15 09:26:12;;;;;;;8.15;5.85;;;37.90;51.10;;;;;;5018763;28;20050;-75
2022/08/15 09:28:45;;;;;;;6.93;4.88;;;37.30;51.20;;;;;;5014936;28;20101;-75
2022/08/15 09:31:21;;;;;;;6.15;5.55;;;37.10;54.80;;;;;;5016512;28;20491;-75
2022/08/15 09:34:06;;;;;;;8.63;5.78;;;36.50;52.90;;;;;;5007991;28;20030;-75
2022/08/15 09:36:49;;;;;;;9.07;4.25;;;35.60;54.00;;;;;;5014409;28;21570;-76
2022/08/15 09:39:21;;;;;;;10.05;5.40;;;36.50;54.80;;;;;;5016647;28;20456;-75
2022/08/15 09:42:13;;;;;;;5.85;5.20;;;37.00;52.30;;;;;;5017509;28;20044;-75
2022/08/15 09:45:07;;;;;;;7.55;5.07;;;36.70;53.90;;;;;;5005457;28;20500;-76
2022/08/15 09:47:51;;;;;;;6.03;5.43;;;36.70;53.00;;;;;;5021489;28;20041;-75
2022/08/15 09:50:37;;;;;;;5.57;4.63;;;37.10;52.70;;;;;;4998248;28;20108;-76
2022/08/15 09:53:18;;;;;;;6.18;4.22;;;37.10;52.40;;;;;;5017186;28;20044;-75
2022/08/15 09:55:48;;;;;;;9.05;5.40;;;37.80;52.00;;;;;;5014031;28;20040;-75
2022/08/15 09:58:26;;;;;;;5.22;4.72;;;37.20;52.40;;;;;;5023963;28;20025;-81
2022/08/15 10:01:29;;;;;;;5.82;5.32;;;36.70;51.10;;;;;;5016918;28;20037;-79
2022/08/15 10:03:59;;;;;;;6.40;5.82;;;36.30;54.60;;;;;;5017313;28;20030;-79
2022/08/15 10:07:04;;;;;;;5.68;4.75;;;35.80;55.40;;;;;;5002871;28;20471;-79
2022/08/15 10:09:31;;;;;;;5.43;4.47;;;36.20;54.40;;;;;;4991887;28;20129;-77
2022/08/15 10:12:06;;;;;;;4.50;4.05;;;36.50;54.50;;;;;;5003163;28;20022;-76
2022/08/15 10:14:53;;;;;;;6.25;4.47;;;37.10;53.30;;;;;;5009449;28;20535;-77
2022/08/15 10:17:41;;;;;;;4.90;4.55;;;37.40;52.70;;;;;;5012435;28;20029;-77
2022/08/15 10:20:16;;;;;;;7.47;5.38;;;37.50;50.60;;;;;;5002445;28;20439;-77
2022/08/15 10:22:41;;;;;;;6.70;5.10;;;37.20;52.10;;;;;;4998970;28;20113;-77
2022/08/15 10:25:22;;;;;;;9.00;5.15;;;37.60;50.90;;;;;;5007695;28;20033;-77
2022/08/15 10:28:06;;;;;;;7.53;4.43;;;36.90;49.90;;;;;;5016354;28;20119;-76
2022/08/15 10:31:05;;;;;;;5.55;3.90;;;35.80;50.90;;;;;;5011388;28;20120;-75
2022/08/15 10:33:31;;;;;;;6.07;5.07;;;34.70;54.40;;;;;;5010705;28;20037;-76
2022/08/15 10:36:18;;;;;;;6.20;4.38;;;34.70;52.40;;;;;;5010286;28;20103;-74
2022/08/15 10:38:50;;;;;;;7.45;5.35;;;35.20;54.30;;;;;;5014007;28;20030;-74
2022/08/15 10:41:24;;;;;;;6.15;5.32;;;34.70;50.30;;;;;;5009927;28;20459;-75
2022/08/15 10:44:06;;;;;;;5.90;4.55;;;34.00;53.50;;;;;;5013288;28;20041;-74
2022/08/15 10:46:38;;;;;;;7.30;5.57;;;34.30;55.70;;;;;;5013089;28;20026;-74
2022/08/15 10:49:18;;;;;;;7.07;5.88;;;35.20;51.90;;;;;;5008049;28;20570;-74
2022/08/15 10:52:28;;;;;;;5.60;5.00;;;34.90;53.20;;;;;;5008675;28;20045;-74
2022/08/15 10:54:56;;;;;;;9.15;4.68;;;35.00;52.50;;;;;;4971405;28;20106;-74
2022/08/15 10:57:24;;;;;;;7.10;5.75;;;35.20;54.10;;;;;;5016330;28;20132;-73
2022/08/15 10:59:54;;;;;;;5.63;4.32;;;35.80;51.70;;;;;;5009765;28;20032;-75
2022/08/15 11:02:51;;;;;;;6.18;5.60;;;35.70;55.10;;;;;;5018271;28;20037;-75
2022/08/15 11:05:22;;;;;;;6.25;5.65;;;35.20;52.00;;;;;;5007787;28;20492;-74
2022/08/15 11:07:50;;;;;;;6.25;5.65;;;34.00;53.60;;;;;;5005443;28;20065;-74
2022/08/15 11:10:19;;;;;;;10.38;6.18;;;32.90;58.40;;;;;;5009969;28;20532;-74
2022/08/15 11:12:48;;;;;;;8.88;7.45;;;32.60;59.70;;;;;;5011179;28;20033;-76
2022/08/15 11:15:24;;;;;;;7.32;5.28;;;31.90;61.80;;;;;;5012009;28;20057;-74
2022/08/15 11:18:04;;;;;;;9.05;6.55;;;31.90;63.00;;;;;;5007754;28;20035;-75
2022/08/15 11:20:49;;;;;;;10.77;8.05;;;32.60;62.10;;;;;;5006566;28;20116;-73
2022/08/15 11:23:31;;;;;;;7.53;6.75;;;33.60;60.00;;;;;;5003205;28;20021;-76
2022/08/15 11:25:57;;;;;;;10.55;6.93;;;34.40;58.90;;;;;;5004889;28;20029;-77
2022/08/15 11:28:29;;;;;;;8.25;6.70;;;35.00;58.70;;;;;;5009175;28;20045;-77
2022/08/15 11:31:17;;;;;;;11.05;7.20;;;35.10;55.60;;;;;;5017676;28;20381;-77
2022/08/15 11:33:48;;;;;;;10.82;8.32;;;34.80;56.40;;;;;;5007320;28;20026;-76
2022/08/15 11:36:27;;;;;;;;;;;33.70;56.10;;;;;;5010682;28;20466;-77
2022/08/15 11:38:54;;;;;;;;;;;33.00;60.60;;;;;;5001036;28;20417;-76
2022/08/15 11:41:22;;;;;;;;;;;32.50;59.20;;;;;;5012374;28;19921;-76
2022/08/15 11:43:48;;;;;;;;;;;31.60;64.60;;;;;;5007077;28;19913;-76
2022/08/15 11:46:16;;;;;;;;;;;30.90;65.80;;;;;;5004270;28;19927;-77
2022/08/15 11:48:46;;;;;;;;;;;30.80;69.40;;;;;;5001272;28;19978;-77
2022/08/15 11:51:15;;;;;;;;;;;31.30;69.40;;;;;;5002703;28;20369;-76
2022/08/15 11:54:00;;;;;;;;;;;31.10;68.10;;;;;;5005442;28;20282;-76
2022/08/15 11:56:41;;;;;;;;;;;31.90;66.60;;;;;;5004678;28;19995;-77
2022/08/15 11:59:21;;;;;;;;;;;32.60;67.10;;;;;;5016503;28;20420;-77
2022/08/15 12:02:06;;;;;;;;;;;32.70;62.60;;;;;;5018070;28;20538;-74
2022/08/15 12:04:33;;;;;;;;;;;32.50;63.40;;;;;;5002049;28;19920;-75
2022/08/15 12:07:04;;;;;;;;;;;32.40;63.90;;;;;;5002183;28;20064;-74
2022/08/15 12:09:31;;;;;;;;;;;32.50;62.60;;;;;;5008675;28;19921;-74
2022/08/15 12:11:56;;;;;;;;;;;32.50;63.50;;;;;;4994080;28;19913;-73
2022/08/15 12:14:23;;;;;;;;;;;32.00;63.70;;;;;;5008429;28;19920;-74
2022/08/15 12:16:50;;;;;;;;;;;31.50;64.50;;;;;;5014345;28;20276;-74
2022/08/15 12:19:27;;;;;;;;;;;31.00;69.30;;;;;;5010277;28;20348;-75
2022/08/15 12:21:52;;;;;;;;;;;30.70;65.30;;;;;;5008978;28;19913;-76
2022/08/15 12:24:22;;;;;;;;;;;30.60;65.50;;;;;;5007813;28;20397;-76
2022/08/15 12:26:49;;;;;;;;;;;30.70;68.30;;;;;;5007708;28;19917;-76
2022/08/15 12:29:16;;;;;;;;;;;30.50;67.20;;;;;;5009378;28;19917;-76
2022/08/15 12:31:41;;;;;;;;;;;30.30;67.80;;;;;;5002041;28;19913;-77
2022/08/15 12:34:22;;;;;;;;;;;30.20;67.70;;;;;;5006546;28;19925;-77
2022/08/15 12:36:47;;;;;;;;;;;30.20;68.20;;;;;;5008639;28;19913;-76
2022/08/15 12:39:14;;;;;;;;;;;30.60;67.20;;;;;;5007776;28;20137;-77
2022/08/15 12:41:41;;;;;;;;;;;30.80;67.60;;;;;;5015391;28;19928;-77
2022/08/15 12:44:10;;;;;;;;;;;30.50;67.90;;;;;;5015087;28;19917;-78
2022/08/15 12:46:36;;;;;;;;;;;30.40;71.30;;;;;;5014065;28;19917;-79
2022/08/15 12:49:01;;;;;;;;;;;30.40;68.90;;;;;;5001942;28;20479;-80
2022/08/15 12:51:27;;;;;;;;;;;30.40;68.20;;;;;;4996278;28;20300;-78
2022/08/15 12:53:54;;;;;;;;;;;30.40;70.40;;;;;;5015845;28;19913;-78
2022/08/15 12:56:19;;;;;;;;;;;30.00;70.70;;;;;;5009269;28;20544;-79
2022/08/15 12:58:45;;;;;;;;;;;29.40;72.00;;;;;;5012047;28;20113;-78
2022/08/15 13:01:12;;;;;;;;;;;28.70;75.40;;;;;;5013401;28;19920;-78
2022/08/15 13:03:42;;;;;;;;;;;28.10;80.40;;;;;;5018357;28;19975;-78
2022/08/15 13:06:14;;;;;;;;;;;27.70;85.10;;;;;;5009906;28;19913;-79
2022/08/15 13:08:39;;;;;;;;;;;27.50;89.40;;;;;;5009901;28;19925;-78
2022/08/15 13:11:05;;;;;;;;;;;27.10;89.10;;;;;;5015313;28;19919;-78
2022/08/15 13:13:30;;;;;;;;;;;26.70;92.40;;;;;;5012351;28;19920;-78
2022/08/15 13:15:56;;;;;;;;;;;26.50;93.40;;;;;;5013371;28;19917;-78
2022/08/15 13:18:23;;;;;;;;;;;26.40;95.20;;;;;;5011789;28;19967;-78
2022/08/15 13:23:40;;;;;;;;;;;26.50;96.20;;;;;;5019390;28;19990;-79
2022/08/15 13:26:11;;;;;;;;;;;26.70;96.30;;;;;;5013304;28;20010;-78
2022/08/15 13:28:41;;;;;;;;;;;26.40;97.10;;;;;;4317012;28;10000447;-78
2022/08/15 13:31:07;;;;;;;;;;;26.50;98.10;;;;;;5013962;28;20026;-78
2022/08/15 13:33:34;;;;;;;;;;;26.60;97.20;;;;;;5009651;28;19913;-78
2022/08/15 13:35:59;;;;;;;;;;;26.70;98.00;;;;;;5017282;28;19919;-77
2022/08/15 13:38:29;;;;;;;;;;;26.60;96.70;;;;;;5021278;28;19913;-77
2022/08/15 13:40:55;;;;;;;;;;;26.80;97.80;;;;;;4987156;28;20291;-78
2022/08/15 13:43:20;;;;;;;;;;;27.20;97.20;;;;;;5012580;28;19913;-79
2022/08/15 13:45:47;;;;;;;;;;;27.70;95.40;;;;;;5019073;28;19916;-78
2022/08/15 13:48:15;;;;;;;;;;;27.80;93.60;;;;;;5013212;28;19932;-78
2022/08/15 13:50:41;;;;;;;;;;;28.30;93.30;;;;;;5015029;28;19920;-79
2022/08/15 13:53:07;;;;;;;;;;;28.60;91.50;;;;;;5018300;28;19920;-78
2022/08/15 13:55:33;;;;;;;;;;;28.50;91.70;;;;;;4998392;28;19909;-78
2022/08/15 13:57:58;;;;;;;;;;;28.50;91.40;;;;;;4999648;28;19914;-79
2022/08/15 14:00:24;;;;;;;;;;;28.30;92.10;;;;;;5015234;28;20195;-78
2022/08/15 14:02:50;;;;;;;;;;;28.30;92.10;;;;;;5015524;28;19967;-77
2022/08/15 14:05:18;;;;;;;;;;;28.20;93.20;;;;;;5011715;28;20399;-78
2022/08/15 14:07:45;;;;;;;;;;;28.10;95.20;;;;;;5016761;28;20447;-78
2022/08/15 14:10:11;;;;;;;;;;;27.90;94.20;;;;;;5013594;28;19919;-78
2022/08/15 14:12:37;;;;;;;;;;;27.80;94.30;;;;;;5019605;28;19919;-78
2022/08/15 14:15:03;;;;;;;;;;;27.50;94.50;;;;;;5004592;28;19963;-79
2022/08/15 14:17:29;;;;;;;;;;;27.20;96.70;;;;;;5001289;28;19909;-78
2022/08/15 14:19:56;;;;;;;;;;;27.00;98.50;;;;;;5003862;28;19983;-78
2022/08/15 14:22:23;;;;;;;;;;;27.00;96.80;;;;;;5018010;28;19920;-78
2022/08/15 14:24:49;;;;;;;;;;;27.00;97.60;;;;;;5014771;28;19913;-78
2022/08/15 14:27:14;;;;;;;;;;;27.20;98.30;;;;;;5017418;28;20391;-79
2022/08/15 14:29:43;;;;;;;;;;;27.40;96.90;;;;;;5019158;28;20285;-80